Details From LEBL - Barcelona El Prat
To GCHI - Hierro
Flight Number -
Tags Generated
Created
Modified
Stats Distance 1,271 nm / 2,355 km
Max Altitude 0 ft / 0 m
Waypoints 4
Social Downloads 3
Likes 0
Share VATSIM

Download

Looking for another format? Having issues loading an existing format? Contact us
Advertisement - Login to hide

Notes

Generated

Route

LEBL ANANA AOG03 GCHI

ID Type Via Altitude Latitude Longitude Leg Dist Tot Dist Heading (true) Name
O LEBL APT - 0 ft / 0 m 41.28777˚ 2.08484˚ - 0 nm - -
ANANA FIX - 0 ft / 0 m 39.00000˚ -2.41287˚ 247 nm 247 nm 238° / 235° -
AOG03 FIX - 0 ft / 0 m 36.63657˚ -6.28848˚ 232 nm 480 nm 234° / 231° -
O GCHI APT - 0 ft / 0 m 27.81985˚ -17.88997˚ 791 nm 1271 nm 231° / 225° -

Altitude Profile

Advertisement - Login to hide

Weather


0- 5 10 15 20 25 30 35+ Temperature / ° C

Clouds and Precipitation
Forecast for 2017-12-13 06:00 UTC. Updated 2 hours ago

Ground ~20,000 ft ~40,000 ft Winds

LEBL

Details ICAO LEBL (BCN)
Name Barcelona - El Prat
Region Spain
Timezone Europe/Madrid (UTC+1.0)
Stats Elevation 14 ft / 4 m (AMSL)
Location 41.295108° 2.088030°
Runways 3
Magnetic Variation 0.819° E

METAR

LEBL 130700Z 33012KT 300V360 CAVOK 03/M01 Q1024 NOSIG

Decode

TAF

TAF LEBL 130500Z 1306/1406 33010KT 9999 FEW030 TX14/1312Z TN03/1306Z PROB40 TEMPO 1306/1310 33015G25KT BECMG 1310/1312 24013KT PROB30 TEMPO 1312/1315 25015G25KT

Decode

Departure Runways

ID Width Length Bearing (true) Bearing (mag) Surface Threshold Offset Overrun Length
02 148 ft / 45 m 8,343 ft / 2,543 m 18.93° 18.11° Asphalt 0 ft / 0 m 348 ft / 106 m
07L 197 ft / 60 m 10,983 ft / 3,348 m 65.49° 64.67° Asphalt 1,411 ft / 430 m 1,161 ft / 354 m
07R 197 ft / 60 m 8,718 ft / 2,657 m 65.49° 64.67° Asphalt 0 ft / 0 m 207 ft / 63 m
20 148 ft / 45 m 8,343 ft / 2,543 m 198.93° 198.11° Asphalt 0 ft / 0 m 200 ft / 61 m
25L 197 ft / 60 m 8,718 ft / 2,657 m 245.51° 244.69° Asphalt 0 ft / 0 m 203 ft / 62 m
25R 197 ft / 60 m 10,983 ft / 3,348 m 245.51° 244.69° Asphalt 0 ft / 0 m 522 ft / 159 m

GCHI

Details ICAO GCHI (VDE)
Name Hierro
Region Canary Islands
Timezone Atlantic/Canary (UTC+0.0)
Stats Elevation 337 ft / 103 m (AMSL)
Location 27.814848° -17.887052°
Runways 1
Magnetic Variation 5.629° W

METAR

GCHI 130700Z 03023KT 350V060 9999 FEW028 19/12 Q1022

Decode

TAF

TAF GCHI 130200Z 1303/1403 03018KT 9999 SCT030 TX21/1314Z TN17/1306Z TEMPO 1303/1403 02020G32KT

Decode

Destination Runways

ID Width Length Bearing (true) Bearing (mag) Surface Threshold Offset Overrun Length
16 98 ft / 30 m 4,110 ft / 1,253 m 152.71° 158.34° Asphalt 0 ft / 0 m 112 ft / 34 m
34 98 ft / 30 m 4,110 ft / 1,253 m 332.71° 338.34° Asphalt 0 ft / 0 m 105 ft / 32 m

Popular Alternatives